sensor_id;sensor_type;location;lat;lon;timestamp;pressure;altitude;pressure_sealevel;temperature;humidity
75039;BME280;63609;49.992;14.512;2023-09-19T00:03:31;97505.00;;;15.47;70.97
75039;BME280;63609;49.992;14.512;2023-09-19T00:05:58;97499.00;;;15.79;69.22
75039;BME280;63609;49.992;14.512;2023-09-19T00:08:26;97494.31;;;15.60;69.99
75039;BME280;63609;49.992;14.512;2023-09-19T00:10:54;97490.53;;;15.82;69.11
75039;BME280;63609;49.992;14.512;2023-09-19T00:13:21;97491.56;;;16.16;67.38
75039;BME280;63609;49.992;14.512;2023-09-19T00:15:48;97490.69;;;16.02;67.64
75039;BME280;63609;49.992;14.512;2023-09-19T00:18:20;97504.28;;;15.94;68.75
75039;BME280;63609;49.992;14.512;2023-09-19T00:20:49;97500.50;;;15.88;68.41
75039;BME280;63609;49.992;14.512;2023-09-19T00:23:19;97510.69;;;15.93;66.41
75039;BME280;63609;49.992;14.512;2023-09-19T00:25:47;97515.81;;;15.88;66.91
75039;BME280;63609;49.992;14.512;2023-09-19T00:28:14;97514.19;;;15.59;68.43
75039;BME280;63609;49.992;14.512;2023-09-19T00:30:44;97520.31;;;15.46;68.96
75039;BME280;63609;49.992;14.512;2023-09-19T00:33:22;97519.81;;;15.92;66.55
75039;BME280;63609;49.992;14.512;2023-09-19T00:35:53;97518.22;;;16.04;65.24
75039;BME280;63609;49.992;14.512;2023-09-19T00:38:21;97517.03;;;15.79;65.91
75039;BME280;63609;49.992;14.512;2023-09-19T00:40:53;97516.81;;;15.80;65.88
75039;BME280;63609;49.992;14.512;2023-09-19T00:43:21;97525.31;;;15.84;65.31
75039;BME280;63609;49.992;14.512;2023-09-19T00:45:53;97527.25;;;15.62;67.07
75039;BME280;63609;49.992;14.512;2023-09-19T00:48:26;97522.75;;;15.13;69.05
75039;BME280;63609;49.992;14.512;2023-09-19T00:50:59;97519.25;;;14.98;70.71
75039;BME280;63609;49.992;14.512;2023-09-19T00:53:31;97520.41;;;15.31;69.45
75039;BME280;63609;49.992;14.512;2023-09-19T00:56:02;97516.19;;;15.22;70.04
75039;BME280;63609;49.992;14.512;2023-09-19T00:58:31;97517.28;;;14.85;71.22
75039;BME280;63609;49.992;14.512;2023-09-19T01:01:02;97517.72;;;14.89;71.36
75039;BME280;63609;49.992;14.512;2023-09-19T01:03:41;97525.22;;;14.72;71.72
75039;BME280;63609;49.992;14.512;2023-09-19T01:06:16;97519.19;;;14.70;72.03
75039;BME280;63609;49.992;14.512;2023-09-19T01:08:44;97521.50;;;14.73;71.52
75039;BME280;63609;49.992;14.512;2023-09-19T01:11:21;97521.41;;;14.66;71.70
75039;BME280;63609;49.992;14.512;2023-09-19T01:17:00;97527.72;;;14.73;70.68
75039;BME280;63609;49.992;14.512;2023-09-19T01:22:56;97528.31;;;14.54;71.53
75039;BME280;63609;49.992;14.512;2023-09-19T01:30:44;97531.97;;;14.32;71.51
75039;BME280;63609;49.992;14.512;2023-09-19T01:33:12;97534.28;;;14.35;71.72
75039;BME280;63609;49.992;14.512;2023-09-19T01:35:41;97534.81;;;14.45;71.48
75039;BME280;63609;49.992;14.512;2023-09-19T01:38:09;97531.50;;;14.43;71.18
75039;BME280;63609;49.992;14.512;2023-09-19T01:40:42;97534.00;;;14.44;71.15
75039;BME280;63609;49.992;14.512;2023-09-19T01:43:20;97539.69;;;14.56;70.54
75039;BME280;63609;49.992;14.512;2023-09-19T01:46:03;97525.38;;;14.49;70.75
75039;BME280;63609;49.992;14.512;2023-09-19T01:48:38;97530.72;;;14.13;71.79
75039;BME280;63609;49.992;14.512;2023-09-19T01:51:11;97525.56;;;14.03;72.61
75039;BME280;63609;49.992;14.512;2023-09-19T01:54:00;97526.53;;;14.10;72.09
75039;BME280;63609;49.992;14.512;2023-09-19T01:56:40;97519.03;;;14.06;72.77
75039;BME280;63609;49.992;14.512;2023-09-19T01:59:13;97523.09;;;13.87;73.17
75039;BME280;63609;49.992;14.512;2023-09-19T02:01:45;97515.13;;;13.94;72.76
75039;BME280;63609;49.992;14.512;2023-09-19T02:04:13;97512.16;;;14.03;72.41
75039;BME280;63609;49.992;14.512;2023-09-19T02:06:41;97524.41;;;14.06;72.21
75039;BME280;63609;49.992;14.512;2023-09-19T02:09:09;97519.88;;;14.21;71.47
75039;BME280;63609;49.992;14.512;2023-09-19T02:11:35;97521.97;;;14.11;71.50
75039;BME280;63609;49.992;14.512;2023-09-19T02:14:05;97514.03;;;14.18;70.91
75039;BME280;63609;49.992;14.512;2023-09-19T02:16:35;97520.31;;;14.39;70.86
75039;BME280;63609;49.992;14.512;2023-09-19T02:19:03;97518.25;;;14.41;70.55
75039;BME280;63609;49.992;14.512;2023-09-19T02:21:34;97514.75;;;14.41;69.82
75039;BME280;63609;49.992;14.512;2023-09-19T02:24:01;97510.59;;;14.24;70.38
75039;BME280;63609;49.992;14.512;2023-09-19T02:26:30;97519.09;;;14.27;70.43
75039;BME280;63609;49.992;14.512;2023-09-19T02:28:56;97512.25;;;14.25;70.19
75039;BME280;63609;49.992;14.512;2023-09-19T02:31:24;97518.38;;;14.19;70.75
75039;BME280;63609;49.992;14.512;2023-09-19T02:33:53;97510.28;;;14.33;70.09
75039;BME280;63609;49.992;14.512;2023-09-19T02:36:21;97503.75;;;14.21;70.54
75039;BME280;63609;49.992;14.512;2023-09-19T02:38:48;97517.91;;;14.30;70.15
75039;BME280;63609;49.992;14.512;2023-09-19T02:41:17;97519.28;;;14.40;70.04
75039;BME280;63609;49.992;14.512;2023-09-19T02:43:45;97515.84;;;14.46;69.44
75039;BME280;63609;49.992;14.512;2023-09-19T02:46:12;97518.44;;;14.76;68.76
75039;BME280;63609;49.992;14.512;2023-09-19T02:48:39;97515.56;;;14.77;68.36
75039;BME280;63609;49.992;14.512;2023-09-19T02:51:09;97513.72;;;14.63;68.73
75039;BME280;63609;49.992;14.512;2023-09-19T02:53:36;97525.13;;;14.65;68.85
75039;BME280;63609;49.992;14.512;2023-09-19T02:56:04;97512.91;;;14.84;68.41
75039;BME280;63609;49.992;14.512;2023-09-19T02:58:31;97522.31;;;14.95;67.57
75039;BME280;63609;49.992;14.512;2023-09-19T03:01:14;97529.03;;;14.84;68.01
75039;BME280;63609;49.992;14.512;2023-09-19T03:03:42;97532.44;;;14.93;67.33
75039;BME280;63609;49.992;14.512;2023-09-19T03:06:09;97521.91;;;15.13;67.06
75039;BME280;63609;49.992;14.512;2023-09-19T03:08:36;97525.03;;;15.16;66.98
75039;BME280;63609;49.992;14.512;2023-09-19T03:11:08;97519.44;;;14.96;67.46
75039;BME280;63609;49.992;14.512;2023-09-19T03:13:39;97515.13;;;15.17;67.04
75039;BME280;63609;49.992;14.512;2023-09-19T03:16:07;97515.72;;;15.40;66.39
75039;BME280;63609;49.992;14.512;2023-09-19T03:18:35;97503.97;;;15.20;66.68
75039;BME280;63609;49.992;14.512;2023-09-19T03:21:02;97512.97;;;15.05;67.37
75039;BME280;63609;49.992;14.512;2023-09-19T03:23:29;97500.16;;;15.07;67.51
75039;BME280;63609;49.992;14.512;2023-09-19T03:25:56;97501.63;;;15.10;67.79
75039;BME280;63609;49.992;14.512;2023-09-19T03:28:24;97499.28;;;14.86;68.45
75039;BME280;63609;49.992;14.512;2023-09-19T03:31:12;97505.81;;;14.76;68.75
75039;BME280;63609;49.992;14.512;2023-09-19T03:33:39;97502.09;;;14.56;69.67
75039;BME280;63609;49.992;14.512;2023-09-19T03:36:06;97498.75;;;14.54;69.66
75039;BME280;63609;49.992;14.512;2023-09-19T03:38:34;97506.13;;;14.88;68.82
75039;BME280;63609;49.992;14.512;2023-09-19T03:41:02;97502.16;;;14.63;69.32
75039;BME280;63609;49.992;14.512;2023-09-19T03:43:31;97500.50;;;14.62;69.25
75039;BME280;63609;49.992;14.512;2023-09-19T03:46:02;97497.50;;;14.93;68.70
75039;BME280;63609;49.992;14.512;2023-09-19T03:48:32;97491.81;;;14.81;68.99
75039;BME280;63609;49.992;14.512;2023-09-19T03:50:59;97489.69;;;14.55;69.30
75039;BME280;63609;49.992;14.512;2023-09-19T03:53:26;97485.53;;;14.53;69.78
75039;BME280;63609;49.992;14.512;2023-09-19T03:55:53;97488.81;;;14.69;68.68
75039;BME280;63609;49.992;14.512;2023-09-19T03:58:20;97489.03;;;14.96;68.04
75039;BME280;63609;49.992;14.512;2023-09-19T04:00:47;97488.34;;;14.66;68.61
75039;BME280;63609;49.992;14.512;2023-09-19T04:03:16;97496.22;;;14.89;68.51
75039;BME280;63609;49.992;14.512;2023-09-19T04:05:53;97512.84;;;14.99;68.08
75039;BME280;63609;49.992;14.512;2023-09-19T04:08:20;97507.09;;;15.02;67.82
75039;BME280;63609;49.992;14.512;2023-09-19T04:10:47;97505.28;;;14.66;69.02
75039;BME280;63609;49.992;14.512;2023-09-19T04:13:16;97510.78;;;14.58;69.12
75039;BME280;63609;49.992;14.512;2023-09-19T04:15:43;97524.09;;;14.66;69.24
75039;BME280;63609;49.992;14.512;2023-09-19T04:18:13;97523.19;;;14.59;69.32
75039;BME280;63609;49.992;14.512;2023-09-19T04:20:41;97527.94;;;14.57;69.11
75039;BME280;63609;49.992;14.512;2023-09-19T04:23:14;97540.28;;;14.52;69.52
75039;BME280;63609;49.992;14.512;2023-09-19T04:25:45;97540.38;;;14.43;70.29
75039;BME280;63609;49.992;14.512;2023-09-19T04:28:12;97543.44;;;14.40;70.33
75039;BME280;63609;49.992;14.512;2023-09-19T04:30:39;97545.97;;;14.27;70.47
75039;BME280;63609;49.992;14.512;2023-09-19T04:33:09;97547.22;;;14.46;70.11
75039;BME280;63609;49.992;14.512;2023-09-19T04:35:36;97549.47;;;14.28;70.64
75039;BME280;63609;49.992;14.512;2023-09-19T04:38:03;97551.00;;;14.52;70.07
75039;BME280;63609;49.992;14.512;2023-09-19T04:40:31;97567.16;;;14.37;70.60
75039;BME280;63609;49.992;14.512;2023-09-19T04:43:01;97575.38;;;14.35;70.46
75039;BME280;63609;49.992;14.512;2023-09-19T04:45:29;97571.44;;;14.67;69.53
75039;BME280;63609;49.992;14.512;2023-09-19T04:47:56;97576.78;;;14.46;69.82
75039;BME280;63609;49.992;14.512;2023-09-19T04:50:23;97578.19;;;14.42;70.17
75039;BME280;63609;49.992;14.512;2023-09-19T04:52:53;97575.94;;;14.82;68.81
75039;BME280;63609;49.992;14.512;2023-09-19T04:55:20;97587.56;;;14.67;69.35
75039;BME280;63609;49.992;14.512;2023-09-19T04:57:49;97595.28;;;14.92;68.80
75039;BME280;63609;49.992;14.512;2023-09-19T05:00:21;97589.06;;;14.70;68.99
75039;BME280;63609;49.992;14.512;2023-09-19T05:02:52;97594.00;;;14.52;69.34
75039;BME280;63609;49.992;14.512;2023-09-19T05:05:19;97588.38;;;14.68;69.16
75039;BME280;63609;49.992;14.512;2023-09-19T05:07:46;97596.56;;;14.74;69.30
75039;BME280;63609;49.992;14.512;2023-09-19T05:10:14;97600.88;;;14.39;70.12
75039;BME280;63609;49.992;14.512;2023-09-19T05:12:42;97600.56;;;14.34;70.33
75039;BME280;63609;49.992;14.512;2023-09-19T05:15:11;97610.91;;;14.67;69.42
75039;BME280;63609;49.992;14.512;2023-09-19T05:17:38;97615.84;;;14.49;69.95
75039;BME280;63609;49.992;14.512;2023-09-19T05:20:07;97621.69;;;14.52;70.23
75039;BME280;63609;49.992;14.512;2023-09-19T05:22:42;97626.19;;;14.66;69.67
75039;BME280;63609;49.992;14.512;2023-09-19T05:25:10;97621.50;;;14.54;70.24
75039;BME280;63609;49.992;14.512;2023-09-19T05:40:21;97636.59;;;14.55;69.92
75039;BME280;63609;49.992;14.512;2023-09-19T05:42:48;97638.53;;;14.75;69.06
75039;BME280;63609;49.992;14.512;2023-09-19T05:45:18;97630.66;;;14.74;69.15
75039;BME280;63609;49.992;14.512;2023-09-19T05:47:55;97632.31;;;14.60;69.86
75039;BME280;63609;49.992;14.512;2023-09-19T05:50:32;97647.41;;;14.61;69.56
75039;BME280;63609;49.992;14.512;2023-09-19T05:53:16;97644.72;;;14.61;69.54
75039;BME280;63609;49.992;14.512;2023-09-19T05:55:51;97647.06;;;15.00;68.51
75039;BME280;63609;49.992;14.512;2023-09-19T05:58:21;97649.19;;;14.69;69.38
75039;BME280;63609;49.992;14.512;2023-09-19T06:00:49;97645.69;;;14.54;69.91
75039;BME280;63609;49.992;14.512;2023-09-19T06:03:17;97651.31;;;14.59;70.17
75039;BME280;63609;49.992;14.512;2023-09-19T06:05:47;97653.44;;;14.63;70.18
75039;BME280;63609;49.992;14.512;2023-09-19T06:08:22;97665.38;;;14.61;70.15
75039;BME280;63609;49.992;14.512;2023-09-19T06:10:49;97652.72;;;14.69;69.90
75039;BME280;63609;49.992;14.512;2023-09-19T06:13:20;97665.22;;;14.98;69.07
75039;BME280;63609;49.992;14.512;2023-09-19T06:15:48;97658.72;;;14.57;70.54
75039;BME280;63609;49.992;14.512;2023-09-19T06:18:16;97667.44;;;14.73;69.64
75039;BME280;63609;49.992;14.512;2023-09-19T06:20:49;97668.91;;;14.76;69.44
75039;BME280;63609;49.992;14.512;2023-09-19T06:23:20;97684.66;;;14.64;70.07
75039;BME280;63609;49.992;14.512;2023-09-19T06:25:48;97683.81;;;14.64;70.54
75039;BME280;63609;49.992;14.512;2023-09-19T06:28:33;97683.56;;;14.73;70.28
75039;BME280;63609;49.992;14.512;2023-09-19T06:36:00;97693.94;;;15.27;67.84
75039;BME280;63609;49.992;14.512;2023-09-19T06:39:31;97701.59;;;14.94;68.50
75039;BME280;63609;49.992;14.512;2023-09-19T06:42:06;97705.50;;;15.06;68.59
75039;BME280;63609;49.992;14.512;2023-09-19T06:45:00;97709.84;;;14.93;69.36
75039;BME280;63609;49.992;14.512;2023-09-19T06:47:36;97714.94;;;15.02;69.29
75039;BME280;63609;49.992;14.512;2023-09-19T06:50:08;97722.44;;;15.22;68.66
75039;BME280;63609;49.992;14.512;2023-09-19T06:52:41;97717.03;;;15.22;68.67
75039;BME280;63609;49.992;14.512;2023-09-19T06:55:25;97726.13;;;15.35;67.97
75039;BME280;63609;49.992;14.512;2023-09-19T06:58:01;97726.66;;;15.31;68.20
75039;BME280;63609;49.992;14.512;2023-09-19T07:00:40;97729.69;;;15.06;68.52
75039;BME280;63609;49.992;14.512;2023-09-19T07:03:24;97737.84;;;15.49;67.63
75039;BME280;63609;49.992;14.512;2023-09-19T07:05:54;97722.41;;;15.36;67.89
75039;BME280;63609;49.992;14.512;2023-09-19T07:08:23;97729.16;;;15.68;66.27
75039;BME280;63609;49.992;14.512;2023-09-19T07:10:50;97739.81;;;15.62;67.15
75039;BME280;63609;49.992;14.512;2023-09-19T07:13:21;97736.22;;;15.91;66.70
75039;BME280;63609;49.992;14.512;2023-09-19T07:15:48;97736.25;;;15.76;66.52
75039;BME280;63609;49.992;14.512;2023-09-19T07:18:18;97739.63;;;15.63;66.80
75039;BME280;63609;49.992;14.512;2023-09-19T07:20:47;97747.41;;;15.94;66.72
75039;BME280;63609;49.992;14.512;2023-09-19T07:23:24;97745.19;;;15.41;67.48
75039;BME280;63609;49.992;14.512;2023-09-19T07:26:06;97746.63;;;15.79;66.46
75039;BME280;63609;49.992;14.512;2023-09-19T07:28:34;97737.75;;;16.00;65.99
75039;BME280;63609;49.992;14.512;2023-09-19T07:31:03;97752.66;;;15.81;66.15
75039;BME280;63609;49.992;14.512;2023-09-19T07:33:32;97742.78;;;15.88;65.86
75039;BME280;63609;49.992;14.512;2023-09-19T07:36:00;97744.09;;;15.92;66.07
75039;BME280;63609;49.992;14.512;2023-09-19T07:38:29;97754.09;;;15.98;65.84
75039;BME280;63609;49.992;14.512;2023-09-19T07:41:01;97752.00;;;16.22;64.79
75039;BME280;63609;49.992;14.512;2023-09-19T07:43:29;97770.88;;;16.22;64.61
75039;BME280;63609;49.992;14.512;2023-09-19T07:45:57;97770.91;;;16.00;65.22
75039;BME280;63609;49.992;14.512;2023-09-19T07:48:28;97768.50;;;16.12;64.92
75039;BME280;63609;49.992;14.512;2023-09-19T07:50:55;97776.69;;;15.83;65.71
75039;BME280;63609;49.992;14.512;2023-09-19T07:53:22;97765.25;;;16.17;64.67
75039;BME280;63609;49.992;14.512;2023-09-19T07:55:49;97776.38;;;16.35;63.65
75039;BME280;63609;49.992;14.512;2023-09-19T07:58:17;97765.69;;;16.48;64.13
75039;BME280;63609;49.992;14.512;2023-09-19T08:00:44;97777.03;;;16.16;63.93
75039;BME280;63609;49.992;14.512;2023-09-19T08:03:11;97768.81;;;16.73;62.87
75039;BME280;63609;49.992;14.512;2023-09-19T08:05:46;97774.47;;;16.85;62.47
75039;BME280;63609;49.992;14.512;2023-09-19T08:08:15;97787.16;;;16.91;62.28
75039;BME280;63609;49.992;14.512;2023-09-19T08:10:42;97766.47;;;16.98;61.98
75039;BME280;63609;49.992;14.512;2023-09-19T08:13:13;97774.66;;;16.55;62.84
75039;BME280;63609;49.992;14.512;2023-09-19T08:15:44;97776.91;;;16.52;62.88
75039;BME280;63609;49.992;14.512;2023-09-19T08:18:12;97770.28;;;16.76;62.74
75039;BME280;63609;49.992;14.512;2023-09-19T08:20:39;97780.88;;;17.18;62.42
75039;BME280;63609;49.992;14.512;2023-09-19T08:23:08;97782.19;;;17.36;61.63
75039;BME280;63609;49.992;14.512;2023-09-19T08:25:38;97786.50;;;16.89;61.06
75039;BME280;63609;49.992;14.512;2023-09-19T08:28:06;97798.16;;;16.96;60.42
75039;BME280;63609;49.992;14.512;2023-09-19T08:30:35;97790.94;;;16.97;61.04
75039;BME280;63609;49.992;14.512;2023-09-19T08:33:07;97791.06;;;17.23;61.12
75039;BME280;63609;49.992;14.512;2023-09-19T08:35:34;97777.75;;;16.80;60.45
75039;BME280;63609;49.992;14.512;2023-09-19T08:38:02;97792.59;;;16.98;60.40
75039;BME280;63609;49.992;14.512;2023-09-19T08:40:32;97789.91;;;16.42;62.05
75039;BME280;63609;49.992;14.512;2023-09-19T08:43:00;97802.81;;;16.53;61.34
75039;BME280;63609;49.992;14.512;2023-09-19T08:45:28;97795.28;;;16.70;60.99
75039;BME280;63609;49.992;14.512;2023-09-19T08:51:07;97810.19;;;16.93;60.26
75039;BME280;63609;49.992;14.512;2023-09-19T08:54:03;97813.22;;;16.77;61.65
75039;BME280;63609;49.992;14.512;2023-09-19T08:56:35;97809.91;;;17.16;60.27
75039;BME280;63609;49.992;14.512;2023-09-19T08:59:08;97804.16;;;16.91;60.41
75039;BME280;63609;49.992;14.512;2023-09-19T09:01:40;97815.59;;;16.93;60.42
75039;BME280;63609;49.992;14.512;2023-09-19T09:04:11;97820.94;;;17.21;59.81
75039;BME280;63609;49.992;14.512;2023-09-19T09:06:41;97817.19;;;17.22;59.48
75039;BME280;63609;49.992;14.512;2023-09-19T09:09:12;97816.78;;;17.19;59.90
75039;BME280;63609;49.992;14.512;2023-09-19T09:11:40;97820.09;;;17.21;59.63
75039;BME280;63609;49.992;14.512;2023-09-19T09:14:08;97826.25;;;17.49;58.44
75039;BME280;63609;49.992;14.512;2023-09-19T09:16:35;97828.47;;;17.33;57.03
75039;BME280;63609;49.992;14.512;2023-09-19T09:19:04;97833.16;;;17.59;58.82
75039;BME280;63609;49.992;14.512;2023-09-19T09:21:32;97838.06;;;17.42;57.04
75039;BME280;63609;49.992;14.512;2023-09-19T09:26:55;97827.94;;;18.05;55.37
75039;BME280;63609;49.992;14.512;2023-09-19T09:29:49;97828.25;;;17.69;56.98
75039;BME280;63609;49.992;14.512;2023-09-19T09:34:53;97833.91;;;17.94;55.96
75039;BME280;63609;49.992;14.512;2023-09-19T09:37:28;97834.88;;;18.60;54.14
75039;BME280;63609;49.992;14.512;2023-09-19T09:40:01;97825.22;;;18.05;54.65
75039;BME280;63609;49.992;14.512;2023-09-19T09:42:41;97836.03;;;18.05;55.29
75039;BME280;63609;49.992;14.512;2023-09-19T09:45:25;97823.66;;;18.63;55.25
75039;BME280;63609;49.992;14.512;2023-09-19T09:48:15;97826.75;;;18.93;53.27
75039;BME280;63609;49.992;14.512;2023-09-19T09:50:48;97832.56;;;18.51;52.91
75039;BME280;63609;49.992;14.512;2023-09-19T09:53:35;97827.34;;;18.82;52.72
75039;BME280;63609;49.992;14.512;2023-09-19T09:56:08;97812.78;;;18.96;52.68
75039;BME280;63609;49.992;14.512;2023-09-19T09:58:58;97818.44;;;19.59;50.39
75039;BME280;63609;49.992;14.512;2023-09-19T10:01:27;97813.00;;;19.66;50.55
75039;BME280;63609;49.992;14.512;2023-09-19T10:03:58;97800.66;;;19.77;50.00
75039;BME280;63609;49.992;14.512;2023-09-19T10:06:40;97805.28;;;19.12;50.72
75039;BME280;63609;49.992;14.512;2023-09-19T10:09:14;97799.81;;;19.31;51.43
75039;BME280;63609;49.992;14.512;2023-09-19T10:11:45;97811.09;;;19.73;50.39
75039;BME280;63609;49.992;14.512;2023-09-19T10:14:15;97803.97;;;20.48;49.23
75039;BME280;63609;49.992;14.512;2023-09-19T10:16:47;97809.59;;;19.84;48.31
75039;BME280;63609;49.992;14.512;2023-09-19T10:19:30;97816.75;;;19.65;50.60
75039;BME280;63609;49.992;14.512;2023-09-19T10:22:02;97822.09;;;20.48;47.89
75039;BME280;63609;49.992;14.512;2023-09-19T10:24:33;97821.16;;;20.36;47.14
75039;BME280;63609;49.992;14.512;2023-09-19T10:27:15;97834.66;;;19.66;48.08
75039;BME280;63609;49.992;14.512;2023-09-19T10:29:45;97833.53;;;19.87;47.67
75039;BME280;63609;49.992;14.512;2023-09-19T10:32:21;97832.34;;;20.14;46.68
75039;BME280;63609;49.992;14.512;2023-09-19T10:34:51;97829.41;;;20.47;47.20
75039;BME280;63609;49.992;14.512;2023-09-19T10:37:25;97838.34;;;20.79;46.45
75039;BME280;63609;49.992;14.512;2023-09-19T10:39:57;97835.91;;;20.96;45.84
75039;BME280;63609;49.992;14.512;2023-09-19T10:42:26;97839.56;;;20.27;47.88
75039;BME280;63609;49.992;14.512;2023-09-19T10:45:00;97836.09;;;20.13;48.78
75039;BME280;63609;49.992;14.512;2023-09-19T10:47:30;97830.19;;;19.91;49.27
75039;BME280;63609;49.992;14.512;2023-09-19T10:49:58;97834.88;;;19.64;48.99
75039;BME280;63609;49.992;14.512;2023-09-19T10:52:26;97826.28;;;19.16;50.65
75039;BME280;63609;49.992;14.512;2023-09-19T10:54:57;97828.41;;;19.65;48.99
75039;BME280;63609;49.992;14.512;2023-09-19T10:57:30;97824.81;;;20.16;48.37
75039;BME280;63609;49.992;14.512;2023-09-19T11:00:06;97825.66;;;19.79;48.21
75039;BME280;63609;49.992;14.512;2023-09-19T11:06:07;97830.72;;;20.38;45.36
75039;BME280;63609;49.992;14.512;2023-09-19T11:11:47;97823.59;;;20.12;47.49
75039;BME280;63609;49.992;14.512;2023-09-19T11:23:20;97822.19;;;20.35;46.78
75039;BME280;63609;49.992;14.512;2023-09-19T11:25:50;97828.22;;;20.93;44.58
75039;BME280;63609;49.992;14.512;2023-09-19T11:30:50;97819.50;;;20.84;44.36
75039;BME280;63609;49.992;14.512;2023-09-19T11:36:17;97810.56;;;20.59;41.87
75039;BME280;63609;49.992;14.512;2023-09-19T11:43:54;97814.53;;;21.43;40.75
75039;BME280;63609;49.992;14.512;2023-09-19T11:46:54;97805.09;;;20.84;38.20
75039;BME280;63609;49.992;14.512;2023-09-19T11:49:30;97810.53;;;21.45;39.04
75039;BME280;63609;49.992;14.512;2023-09-19T11:52:03;97803.75;;;21.36;39.39
75039;BME280;63609;49.992;14.512;2023-09-19T11:54:40;97812.38;;;21.81;37.84
75039;BME280;63609;49.992;14.512;2023-09-19T11:57:09;97813.78;;;22.32;36.40
75039;BME280;63609;49.992;14.512;2023-09-19T11:59:38;97821.97;;;22.14;37.62
75039;BME280;63609;49.992;14.512;2023-09-19T12:02:10;97811.00;;;21.61;36.90
75039;BME280;63609;49.992;14.512;2023-09-19T12:04:45;97801.03;;;21.18;38.21
75039;BME280;63609;49.992;14.512;2023-09-19T12:07:15;97818.09;;;21.25;38.77
75039;BME280;63609;49.992;14.512;2023-09-19T12:09:45;97809.34;;;21.41;36.90
75039;BME280;63609;49.992;14.512;2023-09-19T12:12:27;97818.16;;;22.03;37.61
75039;BME280;63609;49.992;14.512;2023-09-19T12:14:55;97812.72;;;22.03;37.42
75039;BME280;63609;49.992;14.512;2023-09-19T12:17:36;97812.47;;;21.02;37.17
75039;BME280;63609;49.992;14.512;2023-09-19T12:20:05;97814.84;;;21.35;37.63
75039;BME280;63609;49.992;14.512;2023-09-19T12:22:52;97823.16;;;21.21;38.27
75039;BME280;63609;49.992;14.512;2023-09-19T12:25:20;97822.75;;;21.36;38.30
75039;BME280;63609;49.992;14.512;2023-09-19T12:27:49;97823.81;;;21.53;37.93
75039;BME280;63609;49.992;14.512;2023-09-19T12:30:27;97823.81;;;21.17;39.11
75039;BME280;63609;49.992;14.512;2023-09-19T12:32:55;97811.56;;;20.65;38.65
75039;BME280;63609;49.992;14.512;2023-09-19T12:35:32;97820.75;;;20.88;39.05
75039;BME280;63609;49.992;14.512;2023-09-19T12:38:03;97820.47;;;20.72;39.29
75039;BME280;63609;49.992;14.512;2023-09-19T12:40:32;97813.53;;;20.76;39.37
75039;BME280;63609;49.992;14.512;2023-09-19T12:43:01;97810.50;;;20.66;39.18
75039;BME280;63609;49.992;14.512;2023-09-19T12:45:32;97813.06;;;21.04;37.64
75039;BME280;63609;49.992;14.512;2023-09-19T13:00:43;97794.91;;;21.59;35.73
75039;BME280;63609;49.992;14.512;2023-09-19T13:03:16;97803.22;;;22.24;35.44
75039;BME280;63609;49.992;14.512;2023-09-19T13:11:16;97804.03;;;22.55;35.04
75039;BME280;63609;49.992;14.512;2023-09-19T13:13:51;97791.97;;;22.62;32.67
75039;BME280;63609;49.992;14.512;2023-09-19T13:16:22;97801.88;;;22.15;32.62
75039;BME280;63609;49.992;14.512;2023-09-19T13:23:45;97788.22;;;22.22;31.50
75039;BME280;63609;49.992;14.512;2023-09-19T13:26:13;97790.88;;;22.10;31.07
75039;BME280;63609;49.992;14.512;2023-09-19T13:28:40;97786.75;;;21.59;32.12
75039;BME280;63609;49.992;14.512;2023-09-19T13:31:10;97793.13;;;21.53;32.39
75039;BME280;63609;49.992;14.512;2023-09-19T13:33:45;97795.38;;;22.16;31.21
75039;BME280;63609;49.992;14.512;2023-09-19T13:36:13;97787.63;;;21.90;31.76
75039;BME280;63609;49.992;14.512;2023-09-19T13:38:41;97793.22;;;21.76;32.41
75039;BME280;63609;49.992;14.512;2023-09-19T13:45:52;97787.03;;;21.14;31.25
75039;BME280;63609;49.992;14.512;2023-09-19T13:48:20;97789.06;;;21.26;31.70
75039;BME280;63609;49.992;14.512;2023-09-19T13:52:34;97790.91;;;21.07;32.42
75039;BME280;63609;49.992;14.512;2023-09-19T13:56:16;97805.53;;;21.06;32.71
75039;BME280;63609;49.992;14.512;2023-09-19T13:58:43;97795.47;;;21.31;32.76
75039;BME280;63609;49.992;14.512;2023-09-19T14:01:10;97806.94;;;21.33;33.98
75039;BME280;63609;49.992;14.512;2023-09-19T14:04:25;97799.16;;;21.55;33.57
75039;BME280;63609;49.992;14.512;2023-09-19T14:07:53;97804.41;;;21.87;34.80
75039;BME280;63609;49.992;14.512;2023-09-19T14:10:50;97799.28;;;21.60;34.53
75039;BME280;63609;49.992;14.512;2023-09-19T14:17:14;97797.22;;;21.01;35.05
75039;BME280;63609;49.992;14.512;2023-09-19T14:19:42;97798.19;;;21.31;34.97
75039;BME280;63609;49.992;14.512;2023-09-19T14:22:12;97797.69;;;21.16;35.13
75039;BME280;63609;49.992;14.512;2023-09-19T14:24:44;97801.63;;;20.77;35.59
75039;BME280;63609;49.992;14.512;2023-09-19T14:27:11;97791.03;;;20.93;36.42
75039;BME280;63609;49.992;14.512;2023-09-19T14:29:39;97795.78;;;21.23;36.45
75039;BME280;63609;49.992;14.512;2023-09-19T14:32:06;97794.19;;;21.52;35.85
75039;BME280;63609;49.992;14.512;2023-09-19T14:34:34;97789.53;;;21.16;35.68
75039;BME280;63609;49.992;14.512;2023-09-19T14:37:03;97792.66;;;20.76;37.12
75039;BME280;63609;49.992;14.512;2023-09-19T14:39:31;97790.81;;;20.45;37.46
75039;BME280;63609;49.992;14.512;2023-09-19T14:41:59;97792.97;;;20.37;37.80
75039;BME280;63609;49.992;14.512;2023-09-19T14:44:27;97796.19;;;20.58;36.99
75039;BME280;63609;49.992;14.512;2023-09-19T14:46:55;97793.72;;;20.25;37.54
75039;BME280;63609;49.992;14.512;2023-09-19T14:49:23;97795.47;;;20.38;37.48
75039;BME280;63609;49.992;14.512;2023-09-19T14:51:50;97791.69;;;20.14;36.93
75039;BME280;63609;49.992;14.512;2023-09-19T14:54:19;97795.53;;;20.00;37.63